sensor_id;sensor_type;location;lat;lon;timestamp;P1;durP1;ratioP1;P2;durP2;ratioP2
4290;SDS011;2159;50.906;7.152;2022-07-23T00:00:56;15.50;;;13.10;;
4290;SDS011;2159;50.906;7.152;2022-07-23T00:03:23;18.17;;;14.20;;
4290;SDS011;2159;50.906;7.152;2022-07-23T00:05:51;17.87;;;13.30;;
4290;SDS011;2159;50.906;7.152;2022-07-23T00:08:19;18.20;;;13.67;;
4290;SDS011;2159;50.906;7.152;2022-07-23T00:10:46;17.20;;;13.70;;
4290;SDS011;2159;50.906;7.152;2022-07-23T00:13:14;16.00;;;12.23;;
4290;SDS011;2159;50.906;7.152;2022-07-23T00:15:41;17.73;;;13.00;;
4290;SDS011;2159;50.906;7.152;2022-07-23T00:18:10;16.40;;;12.97;;
4290;SDS011;2159;50.906;7.152;2022-07-23T00:20:38;18.53;;;13.83;;
4290;SDS011;2159;50.906;7.152;2022-07-23T00:23:05;16.60;;;13.10;;
4290;SDS011;2159;50.906;7.152;2022-07-23T00:25:34;16.07;;;12.60;;
4290;SDS011;2159;50.906;7.152;2022-07-23T00:28:02;15.20;;;12.90;;
4290;SDS011;2159;50.906;7.152;2022-07-23T00:30:30;16.63;;;13.47;;
4290;SDS011;2159;50.906;7.152;2022-07-23T00:32:59;16.77;;;13.13;;
4290;SDS011;2159;50.906;7.152;2022-07-23T00:35:30;19.03;;;12.80;;
4290;SDS011;2159;50.906;7.152;2022-07-23T00:37:58;19.37;;;12.80;;
4290;SDS011;2159;50.906;7.152;2022-07-23T00:40:26;15.97;;;12.57;;
4290;SDS011;2159;50.906;7.152;2022-07-23T00:42:54;19.20;;;13.00;;
4290;SDS011;2159;50.906;7.152;2022-07-23T00:45:21;14.30;;;12.27;;
4290;SDS011;2159;50.906;7.152;2022-07-23T00:47:49;16.70;;;12.77;;
4290;SDS011;2159;50.906;7.152;2022-07-23T00:50:16;15.73;;;11.83;;
4290;SDS011;2159;50.906;7.152;2022-07-23T00:52:45;15.37;;;12.73;;
4290;SDS011;2159;50.906;7.152;2022-07-23T00:55:14;18.20;;;12.70;;
4290;SDS011;2159;50.906;7.152;2022-07-23T00:57:41;16.03;;;12.57;;
4290;SDS011;2159;50.906;7.152;2022-07-23T01:00:10;15.27;;;12.53;;
4290;SDS011;2159;50.906;7.152;2022-07-23T01:02:38;15.90;;;12.57;;
4290;SDS011;2159;50.906;7.152;2022-07-23T01:05:06;16.97;;;12.67;;
4290;SDS011;2159;50.906;7.152;2022-07-23T01:07:34;17.87;;;13.30;;
4290;SDS011;2159;50.906;7.152;2022-07-23T01:10:05;18.60;;;13.30;;
4290;SDS011;2159;50.906;7.152;2022-07-23T01:12:53;16.43;;;13.07;;
4290;SDS011;2159;50.906;7.152;2022-07-23T01:15:21;15.90;;;12.70;;
4290;SDS011;2159;50.906;7.152;2022-07-23T01:17:49;21.50;;;12.53;;
4290;SDS011;2159;50.906;7.152;2022-07-23T01:20:16;17.77;;;13.50;;
4290;SDS011;2159;50.906;7.152;2022-07-23T01:22:45;19.50;;;13.30;;
4290;SDS011;2159;50.906;7.152;2022-07-23T01:25:13;16.90;;;12.43;;
4290;SDS011;2159;50.906;7.152;2022-07-23T01:27:40;19.13;;;13.40;;
4290;SDS011;2159;50.906;7.152;2022-07-23T01:30:09;18.50;;;12.90;;
4290;SDS011;2159;50.906;7.152;2022-07-23T01:32:36;17.10;;;13.30;;
4290;SDS011;2159;50.906;7.152;2022-07-23T01:35:05;18.10;;;13.33;;
4290;SDS011;2159;50.906;7.152;2022-07-23T01:37:33;16.43;;;13.00;;
4290;SDS011;2159;50.906;7.152;2022-07-23T01:40:02;16.13;;;13.27;;
4290;SDS011;2159;50.906;7.152;2022-07-23T01:42:30;20.87;;;14.00;;
4290;SDS011;2159;50.906;7.152;2022-07-23T01:45:00;17.10;;;13.10;;
4290;SDS011;2159;50.906;7.152;2022-07-23T01:47:28;16.23;;;13.33;;
4290;SDS011;2159;50.906;7.152;2022-07-23T01:49:55;17.00;;;13.73;;
4290;SDS011;2159;50.906;7.152;2022-07-23T01:52:23;16.30;;;12.73;;
4290;SDS011;2159;50.906;7.152;2022-07-23T01:54:50;13.97;;;12.40;;
4290;SDS011;2159;50.906;7.152;2022-07-23T01:57:19;14.80;;;12.30;;
4290;SDS011;2159;50.906;7.152;2022-07-23T01:59:46;17.27;;;12.37;;
4290;SDS011;2159;50.906;7.152;2022-07-23T02:02:14;15.00;;;12.40;;
4290;SDS011;2159;50.906;7.152;2022-07-23T02:04:42;16.90;;;13.20;;
4290;SDS011;2159;50.906;7.152;2022-07-23T02:07:09;18.40;;;13.30;;
4290;SDS011;2159;50.906;7.152;2022-07-23T02:09:36;19.67;;;13.80;;
4290;SDS011;2159;50.906;7.152;2022-07-23T02:12:04;18.03;;;13.47;;
4290;SDS011;2159;50.906;7.152;2022-07-23T02:14:33;16.93;;;13.97;;
4290;SDS011;2159;50.906;7.152;2022-07-23T02:17:04;16.77;;;13.43;;
4290;SDS011;2159;50.906;7.152;2022-07-23T02:19:32;16.23;;;12.80;;
4290;SDS011;2159;50.906;7.152;2022-07-23T02:21:59;16.43;;;12.10;;
4290;SDS011;2159;50.906;7.152;2022-07-23T02:24:27;16.80;;;13.10;;
4290;SDS011;2159;50.906;7.152;2022-07-23T02:26:54;17.17;;;13.87;;
4290;SDS011;2159;50.906;7.152;2022-07-23T02:29:22;20.63;;;13.67;;
4290;SDS011;2159;50.906;7.152;2022-07-23T02:31:50;19.57;;;13.00;;
4290;SDS011;2159;50.906;7.152;2022-07-23T02:34:18;22.07;;;14.17;;
4290;SDS011;2159;50.906;7.152;2022-07-23T02:36:45;19.10;;;12.53;;
4290;SDS011;2159;50.906;7.152;2022-07-23T02:39:13;16.30;;;13.37;;
4290;SDS011;2159;50.906;7.152;2022-07-23T02:41:40;16.10;;;13.57;;
4290;SDS011;2159;50.906;7.152;2022-07-23T02:44:08;17.17;;;12.97;;
4290;SDS011;2159;50.906;7.152;2022-07-23T02:46:35;17.40;;;13.10;;
4290;SDS011;2159;50.906;7.152;2022-07-23T02:49:06;23.30;;;13.73;;
4290;SDS011;2159;50.906;7.152;2022-07-23T02:51:33;17.20;;;12.83;;
4290;SDS011;2159;50.906;7.152;2022-07-23T02:54:01;18.63;;;13.90;;
4290;SDS011;2159;50.906;7.152;2022-07-23T02:56:28;19.73;;;13.50;;
4290;SDS011;2159;50.906;7.152;2022-07-23T02:58:56;19.03;;;13.80;;
4290;SDS011;2159;50.906;7.152;2022-07-23T03:01:24;16.77;;;12.83;;
4290;SDS011;2159;50.906;7.152;2022-07-23T03:03:52;19.13;;;13.00;;
4290;SDS011;2159;50.906;7.152;2022-07-23T03:06:21;20.87;;;13.57;;
4290;SDS011;2159;50.906;7.152;2022-07-23T03:08:48;18.17;;;13.77;;
4290;SDS011;2159;50.906;7.152;2022-07-23T03:11:16;17.93;;;12.47;;
4290;SDS011;2159;50.906;7.152;2022-07-23T03:13:43;17.67;;;13.03;;
4290;SDS011;2159;50.906;7.152;2022-07-23T03:16:11;18.33;;;13.50;;
4290;SDS011;2159;50.906;7.152;2022-07-23T03:18:39;17.73;;;13.73;;
4290;SDS011;2159;50.906;7.152;2022-07-23T03:21:08;22.20;;;13.87;;
4290;SDS011;2159;50.906;7.152;2022-07-23T03:23:37;20.03;;;14.10;;
4290;SDS011;2159;50.906;7.152;2022-07-23T03:26:04;20.20;;;14.27;;
4290;SDS011;2159;50.906;7.152;2022-07-23T03:28:32;22.97;;;14.17;;
4290;SDS011;2159;50.906;7.152;2022-07-23T03:30:59;17.57;;;13.20;;
4290;SDS011;2159;50.906;7.152;2022-07-23T03:33:27;22.27;;;13.97;;
4290;SDS011;2159;50.906;7.152;2022-07-23T03:35:55;17.70;;;13.20;;
4290;SDS011;2159;50.906;7.152;2022-07-23T03:38:22;25.53;;;14.80;;
4290;SDS011;2159;50.906;7.152;2022-07-23T03:40:51;18.73;;;14.33;;
4290;SDS011;2159;50.906;7.152;2022-07-23T03:43:18;18.23;;;13.70;;
4290;SDS011;2159;50.906;7.152;2022-07-23T03:45:46;18.80;;;14.50;;
4290;SDS011;2159;50.906;7.152;2022-07-23T03:48:14;20.50;;;13.83;;
4290;SDS011;2159;50.906;7.152;2022-07-23T03:50:41;18.23;;;13.57;;
4290;SDS011;2159;50.906;7.152;2022-07-23T03:53:08;17.73;;;12.80;;
4290;SDS011;2159;50.906;7.152;2022-07-23T03:55:36;23.67;;;14.53;;
4290;SDS011;2159;50.906;7.152;2022-07-23T03:58:05;19.50;;;14.67;;
4290;SDS011;2159;50.906;7.152;2022-07-23T04:00:32;21.17;;;14.67;;
4290;SDS011;2159;50.906;7.152;2022-07-23T04:03:00;20.00;;;14.57;;
4290;SDS011;2159;50.906;7.152;2022-07-23T04:05:27;24.67;;;14.60;;
4290;SDS011;2159;50.906;7.152;2022-07-23T04:07:55;24.17;;;15.73;;
4290;SDS011;2159;50.906;7.152;2022-07-23T04:10:22;24.83;;;14.43;;
4290;SDS011;2159;50.906;7.152;2022-07-23T04:12:50;23.90;;;15.00;;
4290;SDS011;2159;50.906;7.152;2022-07-23T04:15:19;19.87;;;13.77;;
4290;SDS011;2159;50.906;7.152;2022-07-23T04:17:46;22.23;;;14.90;;
4290;SDS011;2159;50.906;7.152;2022-07-23T04:20:14;20.27;;;14.50;;
4290;SDS011;2159;50.906;7.152;2022-07-23T04:22:41;19.20;;;13.87;;
4290;SDS011;2159;50.906;7.152;2022-07-23T04:25:09;21.20;;;14.83;;
4290;SDS011;2159;50.906;7.152;2022-07-23T04:27:36;19.70;;;14.57;;
4290;SDS011;2159;50.906;7.152;2022-07-23T04:30:04;22.00;;;14.70;;
4290;SDS011;2159;50.906;7.152;2022-07-23T04:32:33;20.20;;;14.13;;
4290;SDS011;2159;50.906;7.152;2022-07-23T04:35:00;22.00;;;14.30;;
4290;SDS011;2159;50.906;7.152;2022-07-23T04:37:28;21.47;;;14.70;;
4290;SDS011;2159;50.906;7.152;2022-07-23T04:39:56;19.73;;;14.50;;
4290;SDS011;2159;50.906;7.152;2022-07-23T04:42:23;22.23;;;14.43;;
4290;SDS011;2159;50.906;7.152;2022-07-23T04:44:50;22.73;;;14.47;;
4290;SDS011;2159;50.906;7.152;2022-07-23T04:47:18;20.83;;;14.07;;
4290;SDS011;2159;50.906;7.152;2022-07-23T04:49:49;19.87;;;14.40;;
4290;SDS011;2159;50.906;7.152;2022-07-23T04:52:16;17.30;;;14.23;;
4290;SDS011;2159;50.906;7.152;2022-07-23T04:54:44;19.80;;;13.93;;
4290;SDS011;2159;50.906;7.152;2022-07-23T04:57:11;20.97;;;13.30;;
4290;SDS011;2159;50.906;7.152;2022-07-23T04:59:39;20.33;;;14.20;;
4290;SDS011;2159;50.906;7.152;2022-07-23T05:02:07;20.80;;;14.07;;
4290;SDS011;2159;50.906;7.152;2022-07-23T05:04:34;23.67;;;14.60;;
4290;SDS011;2159;50.906;7.152;2022-07-23T05:07:03;23.90;;;14.10;;
4290;SDS011;2159;50.906;7.152;2022-07-23T05:09:31;18.63;;;12.97;;
4290;SDS011;2159;50.906;7.152;2022-07-23T05:11:58;19.40;;;13.70;;
4290;SDS011;2159;50.906;7.152;2022-07-23T05:14:26;19.90;;;14.73;;
4290;SDS011;2159;50.906;7.152;2022-07-23T05:16:54;18.50;;;13.37;;
4290;SDS011;2159;50.906;7.152;2022-07-23T05:19:22;24.33;;;14.23;;
4290;SDS011;2159;50.906;7.152;2022-07-23T05:21:50;20.97;;;13.97;;
4290;SDS011;2159;50.906;7.152;2022-07-23T05:24:19;15.23;;;12.53;;
4290;SDS011;2159;50.906;7.152;2022-07-23T05:26:47;19.63;;;13.03;;
4290;SDS011;2159;50.906;7.152;2022-07-23T05:29:14;18.60;;;13.73;;
4290;SDS011;2159;50.906;7.152;2022-07-23T05:31:42;18.83;;;13.50;;
4290;SDS011;2159;50.906;7.152;2022-07-23T05:34:09;18.47;;;13.40;;
4290;SDS011;2159;50.906;7.152;2022-07-23T05:36:43;16.00;;;12.73;;
4290;SDS011;2159;50.906;7.152;2022-07-23T05:39:10;18.10;;;12.43;;
4290;SDS011;2159;50.906;7.152;2022-07-23T05:41:39;24.27;;;13.93;;
4290;SDS011;2159;50.906;7.152;2022-07-23T05:44:08;18.10;;;12.70;;
4290;SDS011;2159;50.906;7.152;2022-07-23T05:46:36;18.67;;;12.40;;
4290;SDS011;2159;50.906;7.152;2022-07-23T05:49:03;18.20;;;12.13;;
4290;SDS011;2159;50.906;7.152;2022-07-23T05:51:32;17.13;;;12.33;;
4290;SDS011;2159;50.906;7.152;2022-07-23T05:54:00;14.80;;;12.20;;
4290;SDS011;2159;50.906;7.152;2022-07-23T05:56:27;16.80;;;12.10;;
4290;SDS011;2159;50.906;7.152;2022-07-23T05:58:56;16.67;;;11.30;;
4290;SDS011;2159;50.906;7.152;2022-07-23T06:01:24;15.67;;;11.30;;
4290;SDS011;2159;50.906;7.152;2022-07-23T06:03:52;19.47;;;12.40;;
4290;SDS011;2159;50.906;7.152;2022-07-23T06:06:20;17.07;;;12.10;;
4290;SDS011;2159;50.906;7.152;2022-07-23T06:08:47;17.23;;;12.13;;
4290;SDS011;2159;50.906;7.152;2022-07-23T06:11:15;23.20;;;12.67;;
4290;SDS011;2159;50.906;7.152;2022-07-23T06:13:42;19.27;;;12.73;;
4290;SDS011;2159;50.906;7.152;2022-07-23T06:16:11;17.87;;;11.97;;
4290;SDS011;2159;50.906;7.152;2022-07-23T06:18:39;20.00;;;12.60;;
4290;SDS011;2159;50.906;7.152;2022-07-23T06:21:06;17.33;;;11.47;;
4290;SDS011;2159;50.906;7.152;2022-07-23T06:23:54;16.37;;;11.53;;
4290;SDS011;2159;50.906;7.152;2022-07-23T06:26:21;19.37;;;11.77;;
4290;SDS011;2159;50.906;7.152;2022-07-23T06:28:49;16.03;;;11.90;;
4290;SDS011;2159;50.906;7.152;2022-07-23T06:31:18;16.43;;;11.27;;
4290;SDS011;2159;50.906;7.152;2022-07-23T06:33:45;20.57;;;11.30;;
4290;SDS011;2159;50.906;7.152;2022-07-23T06:36:13;18.07;;;12.10;;
4290;SDS011;2159;50.906;7.152;2022-07-23T06:38:40;15.63;;;11.07;;
4290;SDS011;2159;50.906;7.152;2022-07-23T06:41:10;15.03;;;10.30;;
4290;SDS011;2159;50.906;7.152;2022-07-23T06:43:37;12.90;;;9.50;;
4290;SDS011;2159;50.906;7.152;2022-07-23T06:46:05;13.70;;;10.60;;
4290;SDS011;2159;50.906;7.152;2022-07-23T06:48:34;15.63;;;10.77;;
4290;SDS011;2159;50.906;7.152;2022-07-23T06:51:02;15.23;;;9.60;;
4290;SDS011;2159;50.906;7.152;2022-07-23T06:53:30;11.90;;;9.53;;
4290;SDS011;2159;50.906;7.152;2022-07-23T06:55:57;13.17;;;9.53;;
4290;SDS011;2159;50.906;7.152;2022-07-23T06:58:25;13.70;;;9.00;;
4290;SDS011;2159;50.906;7.152;2022-07-23T07:00:52;8.93;;;7.60;;
4290;SDS011;2159;50.906;7.152;2022-07-23T07:03:20;10.27;;;7.90;;
4290;SDS011;2159;50.906;7.152;2022-07-23T07:05:49;11.43;;;7.93;;
4290;SDS011;2159;50.906;7.152;2022-07-23T07:08:16;13.27;;;9.37;;
4290;SDS011;2159;50.906;7.152;2022-07-23T07:10:44;15.30;;;8.60;;
4290;SDS011;2159;50.906;7.152;2022-07-23T07:13:12;11.77;;;8.47;;
4290;SDS011;2159;50.906;7.152;2022-07-23T07:15:40;11.53;;;7.60;;
4290;SDS011;2159;50.906;7.152;2022-07-23T07:18:07;8.70;;;7.37;;
4290;SDS011;2159;50.906;7.152;2022-07-23T07:20:35;11.27;;;6.97;;
4290;SDS011;2159;50.906;7.152;2022-07-23T07:23:04;8.70;;;7.30;;
4290;SDS011;2159;50.906;7.152;2022-07-23T07:25:31;8.33;;;6.90;;
4290;SDS011;2159;50.906;7.152;2022-07-23T07:27:59;9.20;;;6.80;;
4290;SDS011;2159;50.906;7.152;2022-07-23T07:30:26;8.33;;;7.17;;
4290;SDS011;2159;50.906;7.152;2022-07-23T07:32:59;9.47;;;7.10;;
4290;SDS011;2159;50.906;7.152;2022-07-23T07:35:27;9.83;;;7.33;;
4290;SDS011;2159;50.906;7.152;2022-07-23T07:37:54;9.80;;;6.60;;
4290;SDS011;2159;50.906;7.152;2022-07-23T07:40:23;9.07;;;7.47;;
4290;SDS011;2159;50.906;7.152;2022-07-23T07:42:58;10.17;;;6.50;;
4290;SDS011;2159;50.906;7.152;2022-07-23T07:45:26;7.53;;;6.33;;
4290;SDS011;2159;50.906;7.152;2022-07-23T07:47:53;8.80;;;7.40;;
4290;SDS011;2159;50.906;7.152;2022-07-23T07:50:21;9.60;;;6.80;;
4290;SDS011;2159;50.906;7.152;2022-07-23T07:52:49;9.10;;;6.73;;
4290;SDS011;2159;50.906;7.152;2022-07-23T07:55:16;10.07;;;6.43;;
4290;SDS011;2159;50.906;7.152;2022-07-23T07:57:45;7.27;;;5.70;;
4290;SDS011;2159;50.906;7.152;2022-07-23T08:00:15;8.03;;;6.40;;
4290;SDS011;2159;50.906;7.152;2022-07-23T08:02:43;8.50;;;5.83;;
4290;SDS011;2159;50.906;7.152;2022-07-23T08:05:11;9.30;;;6.30;;
4290;SDS011;2159;50.906;7.152;2022-07-23T08:07:38;7.73;;;5.60;;
4290;SDS011;2159;50.906;7.152;2022-07-23T08:10:06;7.40;;;6.43;;
4290;SDS011;2159;50.906;7.152;2022-07-23T08:12:38;8.27;;;6.63;;
4290;SDS011;2159;50.906;7.152;2022-07-23T08:15:07;7.10;;;6.40;;
4290;SDS011;2159;50.906;7.152;2022-07-23T08:17:39;11.93;;;6.30;;
4290;SDS011;2159;50.906;7.152;2022-07-23T08:20:07;8.27;;;6.60;;
4290;SDS011;2159;50.906;7.152;2022-07-23T08:22:43;9.40;;;6.00;;
4290;SDS011;2159;50.906;7.152;2022-07-23T08:25:10;9.60;;;6.37;;
4290;SDS011;2159;50.906;7.152;2022-07-23T08:27:38;10.80;;;7.63;;
4290;SDS011;2159;50.906;7.152;2022-07-23T08:30:07;8.70;;;7.00;;
4290;SDS011;2159;50.906;7.152;2022-07-23T08:32:48;12.30;;;7.20;;
4290;SDS011;2159;50.906;7.152;2022-07-23T08:35:15;14.17;;;5.90;;
4290;SDS011;2159;50.906;7.152;2022-07-23T08:37:43;10.37;;;6.30;;
4290;SDS011;2159;50.906;7.152;2022-07-23T08:40:11;9.60;;;5.70;;
4290;SDS011;2159;50.906;7.152;2022-07-23T08:42:38;8.20;;;5.83;;
4290;SDS011;2159;50.906;7.152;2022-07-23T08:45:08;12.00;;;7.20;;
4290;SDS011;2159;50.906;7.152;2022-07-23T08:47:36;7.73;;;6.33;;
4290;SDS011;2159;50.906;7.152;2022-07-23T08:50:04;9.50;;;6.63;;
4290;SDS011;2159;50.906;7.152;2022-07-23T08:52:34;10.37;;;7.20;;
4290;SDS011;2159;50.906;7.152;2022-07-23T08:55:03;8.33;;;6.80;;
4290;SDS011;2159;50.906;7.152;2022-07-23T08:57:31;8.57;;;6.33;;
4290;SDS011;2159;50.906;7.152;2022-07-23T08:59:58;9.77;;;6.43;;
4290;SDS011;2159;50.906;7.152;2022-07-23T09:02:27;8.53;;;6.33;;
4290;SDS011;2159;50.906;7.152;2022-07-23T09:04:55;10.17;;;6.20;;
4290;SDS011;2159;50.906;7.152;2022-07-23T09:07:22;10.07;;;7.60;;
4290;SDS011;2159;50.906;7.152;2022-07-23T09:09:57;8.70;;;6.40;;
4290;SDS011;2159;50.906;7.152;2022-07-23T09:12:31;7.30;;;5.87;;
4290;SDS011;2159;50.906;7.152;2022-07-23T09:15:03;7.87;;;6.07;;
4290;SDS011;2159;50.906;7.152;2022-07-23T09:17:36;9.30;;;5.90;;
4290;SDS011;2159;50.906;7.152;2022-07-23T09:20:07;6.80;;;6.10;;
4290;SDS011;2159;50.906;7.152;2022-07-23T09:22:35;10.63;;;6.60;;
4290;SDS011;2159;50.906;7.152;2022-07-23T09:25:07;8.33;;;7.00;;
4290;SDS011;2159;50.906;7.152;2022-07-23T09:27:45;7.17;;;5.90;;
4290;SDS011;2159;50.906;7.152;2022-07-23T09:30:19;7.60;;;5.60;;
4290;SDS011;2159;50.906;7.152;2022-07-23T09:33:08;8.30;;;6.10;;
4290;SDS011;2159;50.906;7.152;2022-07-23T09:35:45;7.83;;;5.57;;
4290;SDS011;2159;50.906;7.152;2022-07-23T09:38:13;6.70;;;6.00;;
4290;SDS011;2159;50.906;7.152;2022-07-23T09:40:41;6.20;;;5.47;;
4290;SDS011;2159;50.906;7.152;2022-07-23T09:43:10;8.13;;;6.60;;
4290;SDS011;2159;50.906;7.152;2022-07-23T09:45:38;8.73;;;6.77;;
4290;SDS011;2159;50.906;7.152;2022-07-23T09:48:11;8.67;;;6.40;;
4290;SDS011;2159;50.906;7.152;2022-07-23T09:50:39;7.97;;;5.83;;
4290;SDS011;2159;50.906;7.152;2022-07-23T09:53:06;6.53;;;5.00;;
4290;SDS011;2159;50.906;7.152;2022-07-23T09:55:35;5.47;;;4.87;;
4290;SDS011;2159;50.906;7.152;2022-07-23T09:58:05;5.70;;;4.50;;
4290;SDS011;2159;50.906;7.152;2022-07-23T10:00:34;5.50;;;5.00;;
4290;SDS011;2159;50.906;7.152;2022-07-23T10:03:02;7.57;;;5.33;;
4290;SDS011;2159;50.906;7.152;2022-07-23T10:05:31;7.13;;;5.90;;
4290;SDS011;2159;50.906;7.152;2022-07-23T10:08:01;7.10;;;5.83;;
4290;SDS011;2159;50.906;7.152;2022-07-23T10:10:29;6.93;;;5.30;;
4290;SDS011;2159;50.906;7.152;2022-07-23T10:12:58;6.07;;;5.07;;
4290;SDS011;2159;50.906;7.152;2022-07-23T10:15:58;5.70;;;4.73;;
4290;SDS011;2159;50.906;7.152;2022-07-23T10:18:26;8.17;;;5.00;;
4290;SDS011;2159;50.906;7.152;2022-07-23T10:20:55;5.33;;;4.70;;
4290;SDS011;2159;50.906;7.152;2022-07-23T10:23:24;5.70;;;5.20;;
4290;SDS011;2159;50.906;7.152;2022-07-23T10:25:57;5.93;;;4.60;;
4290;SDS011;2159;50.906;7.152;2022-07-23T10:28:30;5.73;;;4.77;;
4290;SDS011;2159;50.906;7.152;2022-07-23T10:31:02;6.40;;;4.70;;
4290;SDS011;2159;50.906;7.152;2022-07-23T10:33:38;5.83;;;5.23;;
4290;SDS011;2159;50.906;7.152;2022-07-23T10:36:11;4.30;;;3.90;;
4290;SDS011;2159;50.906;7.152;2022-07-23T10:38:48;4.60;;;4.30;;
4290;SDS011;2159;50.906;7.152;2022-07-23T10:41:30;7.53;;;4.20;;
4290;SDS011;2159;50.906;7.152;2022-07-23T10:44:10;4.70;;;4.30;;
4290;SDS011;2159;50.906;7.152;2022-07-23T10:46:55;6.20;;;5.57;;
4290;SDS011;2159;50.906;7.152;2022-07-23T10:49:49;4.50;;;4.20;;
4290;SDS011;2159;50.906;7.152;2022-07-23T10:52:19;5.20;;;4.40;;
4290;SDS011;2159;50.906;7.152;2022-07-23T10:54:47;4.37;;;4.07;;
4290;SDS011;2159;50.906;7.152;2022-07-23T10:57:18;5.17;;;3.80;;
4290;SDS011;2159;50.906;7.152;2022-07-23T11:02:33;4.27;;;3.97;;
4290;SDS011;2159;50.906;7.152;2022-07-23T11:05:02;4.03;;;3.73;;
4290;SDS011;2159;50.906;7.152;2022-07-23T11:07:32;4.20;;;3.83;;
4290;SDS011;2159;50.906;7.152;2022-07-23T11:09:59;6.17;;;3.40;;
4290;SDS011;2159;50.906;7.152;2022-07-23T11:12:33;5.67;;;4.03;;
4290;SDS011;2159;50.906;7.152;2022-07-23T11:15:06;5.37;;;4.33;;
4290;SDS011;2159;50.906;7.152;2022-07-23T11:17:34;5.23;;;4.20;;
4290;SDS011;2159;50.906;7.152;2022-07-23T11:20:18;5.90;;;4.90;;
4290;SDS011;2159;50.906;7.152;2022-07-23T11:22:49;4.50;;;4.10;;
4290;SDS011;2159;50.906;7.152;2022-07-23T11:25:29;5.13;;;4.07;;
4290;SDS011;2159;50.906;7.152;2022-07-23T11:28:07;4.20;;;3.90;;
4290;SDS011;2159;50.906;7.152;2022-07-23T11:30:39;8.60;;;4.80;;
4290;SDS011;2159;50.906;7.152;2022-07-23T11:33:17;5.97;;;4.20;;
4290;SDS011;2159;50.906;7.152;2022-07-23T11:35:45;4.67;;;4.37;;
4290;SDS011;2159;50.906;7.152;2022-07-23T11:38:15;5.00;;;4.60;;
4290;SDS011;2159;50.906;7.152;2022-07-23T11:40:45;5.00;;;4.60;;
4290;SDS011;2159;50.906;7.152;2022-07-23T11:43:13;4.10;;;3.80;;
4290;SDS011;2159;50.906;7.152;2022-07-23T11:45:41;4.23;;;3.83;;
4290;SDS011;2159;50.906;7.152;2022-07-23T11:48:09;4.50;;;4.10;;
4290;SDS011;2159;50.906;7.152;2022-07-23T11:50:36;4.57;;;4.17;;
4290;SDS011;2159;50.906;7.152;2022-07-23T11:53:04;5.40;;;4.90;;
4290;SDS011;2159;50.906;7.152;2022-07-23T11:55:33;4.77;;;4.47;;
4290;SDS011;2159;50.906;7.152;2022-07-23T11:58:00;4.77;;;4.37;;
4290;SDS011;2159;50.906;7.152;2022-07-23T12:00:29;6.03;;;5.47;;
4290;SDS011;2159;50.906;7.152;2022-07-23T12:02:57;5.67;;;5.17;;
4290;SDS011;2159;50.906;7.152;2022-07-23T12:05:28;6.20;;;4.70;;
4290;SDS011;2159;50.906;7.152;2022-07-23T12:07:56;5.67;;;5.17;;
4290;SDS011;2159;50.906;7.152;2022-07-23T12:10:24;5.43;;;5.00;;
4290;SDS011;2159;50.906;7.152;2022-07-23T12:12:54;6.17;;;4.90;;
4290;SDS011;2159;50.906;7.152;2022-07-23T12:15:22;6.13;;;5.53;;
4290;SDS011;2159;50.906;7.152;2022-07-23T12:17:51;6.00;;;5.40;;
4290;SDS011;2159;50.906;7.152;2022-07-23T12:20:19;5.80;;;5.30;;
4290;SDS011;2159;50.906;7.152;2022-07-23T12:22:48;5.60;;;5.10;;
4290;SDS011;2159;50.906;7.152;2022-07-23T12:25:17;5.47;;;5.00;;
4290;SDS011;2159;50.906;7.152;2022-07-23T12:27:45;6.00;;;5.60;;
4290;SDS011;2159;50.906;7.152;2022-07-23T12:30:22;6.53;;;5.60;;
4290;SDS011;2159;50.906;7.152;2022-07-23T12:32:54;6.83;;;6.23;;
4290;SDS011;2159;50.906;7.152;2022-07-23T12:35:21;6.10;;;5.50;;
4290;SDS011;2159;50.906;7.152;2022-07-23T12:37:50;6.47;;;5.57;;
4290;SDS011;2159;50.906;7.152;2022-07-23T12:40:22;5.90;;;5.40;;
4290;SDS011;2159;50.906;7.152;2022-07-23T12:42:51;5.70;;;5.20;;
4290;SDS011;2159;50.906;7.152;2022-07-23T12:45:19;5.70;;;5.20;;
4290;SDS011;2159;50.906;7.152;2022-07-23T12:47:55;5.83;;;5.30;;
4290;SDS011;2159;50.906;7.152;2022-07-23T12:50:30;5.40;;;5.00;;
4290;SDS011;2159;50.906;7.152;2022-07-23T12:53:02;6.80;;;6.03;;
4290;SDS011;2159;50.906;7.152;2022-07-23T12:55:30;9.93;;;6.33;;
4290;SDS011;2159;50.906;7.152;2022-07-23T12:58:18;6.17;;;5.57;;
4290;SDS011;2159;50.906;7.152;2022-07-23T13:03:37;7.20;;;5.30;;
4290;SDS011;2159;50.906;7.152;2022-07-23T13:06:07;6.37;;;5.23;;
4290;SDS011;2159;50.906;7.152;2022-07-23T13:08:35;8.53;;;5.53;;
4290;SDS011;2159;50.906;7.152;2022-07-23T13:11:04;6.77;;;5.33;;
4290;SDS011;2159;50.906;7.152;2022-07-23T13:13:32;6.23;;;5.40;;
4290;SDS011;2159;50.906;7.152;2022-07-23T13:16:00;5.30;;;4.90;;
4290;SDS011;2159;50.906;7.152;2022-07-23T13:18:34;5.77;;;5.27;;
4290;SDS011;2159;50.906;7.152;2022-07-23T13:21:03;5.60;;;5.20;;
4290;SDS011;2159;50.906;7.152;2022-07-23T13:23:31;6.40;;;5.50;;
4290;SDS011;2159;50.906;7.152;2022-07-23T13:25:59;6.70;;;6.10;;
4290;SDS011;2159;50.906;7.152;2022-07-23T13:28:27;5.93;;;5.33;;
4290;SDS011;2159;50.906;7.152;2022-07-23T13:30:54;8.10;;;5.63;;
4290;SDS011;2159;50.906;7.152;2022-07-23T13:33:23;5.77;;;5.27;;
4290;SDS011;2159;50.906;7.152;2022-07-23T13:35:52;6.30;;;5.70;;
4290;SDS011;2159;50.906;7.152;2022-07-23T13:38:22;6.40;;;5.80;;
4290;SDS011;2159;50.906;7.152;2022-07-23T13:40:51;7.43;;;5.60;;
4290;SDS011;2159;50.906;7.152;2022-07-23T13:43:21;5.60;;;5.20;;
4290;SDS011;2159;50.906;7.152;2022-07-23T13:45:49;6.00;;;5.10;;
4290;SDS011;2159;50.906;7.152;2022-07-23T13:48:18;5.30;;;4.90;;
4290;SDS011;2159;50.906;7.152;2022-07-23T13:50:46;5.40;;;4.90;;
4290;SDS011;2159;50.906;7.152;2022-07-23T13:53:16;6.10;;;5.27;;
4290;SDS011;2159;50.906;7.152;2022-07-23T13:55:45;6.00;;;4.70;;
4290;SDS011;2159;50.906;7.152;2022-07-23T13:58:14;4.77;;;4.37;;
4290;SDS011;2159;50.906;7.152;2022-07-23T14:00:42;7.77;;;4.30;;
4290;SDS011;2159;50.906;7.152;2022-07-23T14:03:19;7.97;;;5.30;;
4290;SDS011;2159;50.906;7.152;2022-07-23T14:05:47;6.10;;;4.13;;
4290;SDS011;2159;50.906;7.152;2022-07-23T14:08:14;4.90;;;4.50;;
4290;SDS011;2159;50.906;7.152;2022-07-23T14:10:42;4.60;;;4.30;;
4290;SDS011;2159;50.906;7.152;2022-07-23T14:13:11;4.53;;;4.17;;
4290;SDS011;2159;50.906;7.152;2022-07-23T14:15:39;4.93;;;4.50;;
4290;SDS011;2159;50.906;7.152;2022-07-23T14:18:08;5.10;;;4.60;;
4290;SDS011;2159;50.906;7.152;2022-07-23T14:20:36;5.37;;;4.87;;
4290;SDS011;2159;50.906;7.152;2022-07-23T14:23:03;7.40;;;5.03;;
4290;SDS011;2159;50.906;7.152;2022-07-23T14:25:31;4.93;;;4.53;;
4290;SDS011;2159;50.906;7.152;2022-07-23T14:27:59;5.47;;;4.50;;
4290;SDS011;2159;50.906;7.152;2022-07-23T14:30:28;5.10;;;4.60;;
4290;SDS011;2159;50.906;7.152;2022-07-23T14:33:00;4.87;;;4.47;;
4290;SDS011;2159;50.906;7.152;2022-07-23T14:35:30;10.07;;;4.73;;
4290;SDS011;2159;50.906;7.152;2022-07-23T14:37:59;5.00;;;4.50;;
4290;SDS011;2159;50.906;7.152;2022-07-23T14:40:27;5.00;;;4.60;;
4290;SDS011;2159;50.906;7.152;2022-07-23T14:42:54;8.80;;;5.33;;
4290;SDS011;2159;50.906;7.152;2022-07-23T14:45:22;5.17;;;4.77;;
4290;SDS011;2159;50.906;7.152;2022-07-23T14:47:51;5.20;;;4.70;;
4290;SDS011;2159;50.906;7.152;2022-07-23T14:50:19;6.53;;;4.70;;
4290;SDS011;2159;50.906;7.152;2022-07-23T14:52:46;4.73;;;4.30;;
4290;SDS011;2159;50.906;7.152;2022-07-23T14:55:14;5.07;;;4.57;;
4290;SDS011;2159;50.906;7.152;2022-07-23T14:57:44;4.20;;;3.90;;
4290;SDS011;2159;50.906;7.152;2022-07-23T15:00:11;5.40;;;4.23;;
4290;SDS011;2159;50.906;7.152;2022-07-23T15:02:41;4.80;;;4.40;;
4290;SDS011;2159;50.906;7.152;2022-07-23T15:05:20;4.67;;;4.23;;
4290;SDS011;2159;50.906;7.152;2022-07-23T15:07:48;4.53;;;4.10;;
4290;SDS011;2159;50.906;7.152;2022-07-23T15:10:16;5.67;;;4.13;;
4290;SDS011;2159;50.906;7.152;2022-07-23T15:12:47;4.27;;;3.90;;
4290;SDS011;2159;50.906;7.152;2022-07-23T15:15:15;4.73;;;4.00;;
4290;SDS011;2159;50.906;7.152;2022-07-23T15:17:43;4.50;;;4.10;;
4290;SDS011;2159;50.906;7.152;2022-07-23T15:20:11;4.77;;;4.37;;